EDDF

Frankfurt am Main International Airport

Frankfurt-am-Main, Germany
METAR EDDF 212320Z 30009KT 260V340 CAVOK 12/05 Q1023 NOSIG
Observed Flight Rules
Jun-21 @ 23:20 UTC (36 minutes ago) Visual Flight Rules
Wind Visibility Clouds
300° at 9 knots 10,000+ meters
  • Clear skies
Temperatures Readings
Current 12°C / 54°F
Dewpoint 5°C / 41°F
Humidity 63%
Altimeter 30.21" Hg
Pressure 1023 hPa
Elevation 113
METAR EDDF 212320Z 30009KT 260V340 CAVOK 12/05 Q1023 NOSIG
Observed Flight Rules
Jun-21 @ 23:20 UTC
(36 minutes ago)
VFR
Wind Visibility
300° at 9 knots 10,000+ meters
Clouds
  • Clear skies
Temperature Dewpoint
12°C / 54°F 5°C / 41°F
Humidity Altimeter Pressure
63% 30.21" Hg 1023 hPa